sensor_id;sensor_type;location;lat;lon;timestamp;temperature;humidity
17385;DHT22;8810;48.680;8.894;2023-02-28T00:00:30;-1.70;99.90
17385;DHT22;8810;48.680;8.894;2023-02-28T00:02:57;-1.80;99.90
17385;DHT22;8810;48.680;8.894;2023-02-28T00:05:25;-1.80;99.90
17385;DHT22;8810;48.680;8.894;2023-02-28T00:07:52;-1.80;99.90
17385;DHT22;8810;48.680;8.894;2023-02-28T00:10:22;-1.80;99.90
17385;DHT22;8810;48.680;8.894;2023-02-28T00:12:50;-1.90;99.90
17385;DHT22;8810;48.680;8.894;2023-02-28T00:15:17;-1.90;99.90
17385;DHT22;8810;48.680;8.894;2023-02-28T00:17:44;-1.90;99.90
17385;DHT22;8810;48.680;8.894;2023-02-28T00:20:12;-1.90;99.90
17385;DHT22;8810;48.680;8.894;2023-02-28T00:22:40;-1.90;99.90
17385;DHT22;8810;48.680;8.894;2023-02-28T00:25:07;-2.00;99.90
17385;DHT22;8810;48.680;8.894;2023-02-28T00:27:37;-2.00;99.90
17385;DHT22;8810;48.680;8.894;2023-02-28T00:30:07;-2.00;99.90
17385;DHT22;8810;48.680;8.894;2023-02-28T00:32:34;-2.00;99.90
17385;DHT22;8810;48.680;8.894;2023-02-28T00:35:02;-2.00;99.90
17385;DHT22;8810;48.680;8.894;2023-02-28T00:37:28;-2.00;99.90
17385;DHT22;8810;48.680;8.894;2023-02-28T00:39:56;-2.10;99.90
17385;DHT22;8810;48.680;8.894;2023-02-28T00:42:23;-2.10;99.90
17385;DHT22;8810;48.680;8.894;2023-02-28T00:44:52;-2.10;99.90
17385;DHT22;8810;48.680;8.894;2023-02-28T00:47:19;-2.10;99.90
17385;DHT22;8810;48.680;8.894;2023-02-28T00:49:46;-2.20;99.90
17385;DHT22;8810;48.680;8.894;2023-02-28T00:52:13;-2.20;99.90
17385;DHT22;8810;48.680;8.894;2023-02-28T00:54:40;-2.20;99.90
17385;DHT22;8810;48.680;8.894;2023-02-28T00:57:06;-2.20;99.90
17385;DHT22;8810;48.680;8.894;2023-02-28T00:59:33;-2.30;99.90
17385;DHT22;8810;48.680;8.894;2023-02-28T01:02:01;-2.30;99.90
17385;DHT22;8810;48.680;8.894;2023-02-28T01:04:28;-2.30;99.90
17385;DHT22;8810;48.680;8.894;2023-02-28T01:06:55;-2.30;99.90
17385;DHT22;8810;48.680;8.894;2023-02-28T01:09:22;-2.30;99.90
17385;DHT22;8810;48.680;8.894;2023-02-28T01:11:49;-2.30;99.90
17385;DHT22;8810;48.680;8.894;2023-02-28T01:14:17;-2.30;99.90
17385;DHT22;8810;48.680;8.894;2023-02-28T01:16:44;-2.40;99.90
17385;DHT22;8810;48.680;8.894;2023-02-28T01:19:12;-2.40;99.90
17385;DHT22;8810;48.680;8.894;2023-02-28T01:21:39;-2.40;99.90
17385;DHT22;8810;48.680;8.894;2023-02-28T01:24:07;-2.40;99.90
17385;DHT22;8810;48.680;8.894;2023-02-28T01:26:33;-2.40;99.90
17385;DHT22;8810;48.680;8.894;2023-02-28T01:29:00;-2.40;99.90
17385;DHT22;8810;48.680;8.894;2023-02-28T01:31:27;-2.50;99.90
17385;DHT22;8810;48.680;8.894;2023-02-28T01:33:54;-2.50;99.90
17385;DHT22;8810;48.680;8.894;2023-02-28T01:36:24;-2.50;99.90
17385;DHT22;8810;48.680;8.894;2023-02-28T01:38:51;-2.50;99.90
17385;DHT22;8810;48.680;8.894;2023-02-28T01:41:21;-2.50;99.90
17385;DHT22;8810;48.680;8.894;2023-02-28T01:43:57;-2.40;99.90
17385;DHT22;8810;48.680;8.894;2023-02-28T01:46:24;-2.50;99.90
17385;DHT22;8810;48.680;8.894;2023-02-28T01:48:54;-2.50;99.90
17385;DHT22;8810;48.680;8.894;2023-02-28T01:51:27;-2.50;99.90
17385;DHT22;8810;48.680;8.894;2023-02-28T01:53:57;-2.50;99.90
17385;DHT22;8810;48.680;8.894;2023-02-28T01:56:29;-2.50;99.90
17385;DHT22;8810;48.680;8.894;2023-02-28T01:58:57;-2.50;99.90
17385;DHT22;8810;48.680;8.894;2023-02-28T02:01:26;-2.50;99.90
17385;DHT22;8810;48.680;8.894;2023-02-28T02:03:56;-2.60;99.90
17385;DHT22;8810;48.680;8.894;2023-02-28T02:06:26;-2.60;99.90
17385;DHT22;8810;48.680;8.894;2023-02-28T02:08:54;-2.60;99.90
17385;DHT22;8810;48.680;8.894;2023-02-28T02:11:23;-2.60;99.90
17385;DHT22;8810;48.680;8.894;2023-02-28T02:14:09;-2.50;99.90
17385;DHT22;8810;48.680;8.894;2023-02-28T02:16:49;-2.60;99.90
17385;DHT22;8810;48.680;8.894;2023-02-28T02:20:04;-2.60;99.90
17385;DHT22;8810;48.680;8.894;2023-02-28T02:23:02;-2.60;99.90
17385;DHT22;8810;48.680;8.894;2023-02-28T02:25:36;-2.60;99.90
17385;DHT22;8810;48.680;8.894;2023-02-28T02:31:24;-2.60;99.90
17385;DHT22;8810;48.680;8.894;2023-02-28T02:34:25;-2.60;99.90
17385;DHT22;8810;48.680;8.894;2023-02-28T02:37:01;-2.60;99.90
17385;DHT22;8810;48.680;8.894;2023-02-28T02:39:33;-2.60;99.90
17385;DHT22;8810;48.680;8.894;2023-02-28T02:42:09;-2.70;99.90
17385;DHT22;8810;48.680;8.894;2023-02-28T02:44:42;-2.70;99.90
17385;DHT22;8810;48.680;8.894;2023-02-28T02:47:13;-2.70;99.90
17385;DHT22;8810;48.680;8.894;2023-02-28T02:49:45;-2.70;99.90
17385;DHT22;8810;48.680;8.894;2023-02-28T02:52:15;-2.70;99.90
17385;DHT22;8810;48.680;8.894;2023-02-28T02:54:46;-2.70;99.90
17385;DHT22;8810;48.680;8.894;2023-02-28T02:57:17;-2.70;99.90
17385;DHT22;8810;48.680;8.894;2023-02-28T02:59:47;-2.70;99.90
17385;DHT22;8810;48.680;8.894;2023-02-28T03:02:16;-2.70;99.90
17385;DHT22;8810;48.680;8.894;2023-02-28T03:04:49;-2.70;99.90
17385;DHT22;8810;48.680;8.894;2023-02-28T03:07:17;-2.70;99.90
17385;DHT22;8810;48.680;8.894;2023-02-28T03:09:50;-2.70;99.90
17385;DHT22;8810;48.680;8.894;2023-02-28T03:12:17;-2.70;99.90
17385;DHT22;8810;48.680;8.894;2023-02-28T03:14:54;-2.70;99.90
17385;DHT22;8810;48.680;8.894;2023-02-28T03:17:46;-2.60;99.90
17385;DHT22;8810;48.680;8.894;2023-02-28T03:20:26;-2.60;99.90
17385;DHT22;8810;48.680;8.894;2023-02-28T03:23:02;-2.60;99.90
17385;DHT22;8810;48.680;8.894;2023-02-28T03:25:38;-2.60;99.90
17385;DHT22;8810;48.680;8.894;2023-02-28T03:28:13;-2.60;99.90
17385;DHT22;8810;48.680;8.894;2023-02-28T03:30:47;-2.60;99.90
17385;DHT22;8810;48.680;8.894;2023-02-28T03:33:22;-2.50;99.90
17385;DHT22;8810;48.680;8.894;2023-02-28T03:35:54;-2.50;99.90
17385;DHT22;8810;48.680;8.894;2023-02-28T03:38:35;-2.50;99.90
17385;DHT22;8810;48.680;8.894;2023-02-28T03:41:06;-2.40;99.90
17385;DHT22;8810;48.680;8.894;2023-02-28T03:43:38;-2.50;99.90
17385;DHT22;8810;48.680;8.894;2023-02-28T03:46:09;-2.40;99.90
17385;DHT22;8810;48.680;8.894;2023-02-28T03:48:40;-2.40;99.90
17385;DHT22;8810;48.680;8.894;2023-02-28T03:51:14;-2.40;99.90
17385;DHT22;8810;48.680;8.894;2023-02-28T03:53:44;-2.40;99.90
17385;DHT22;8810;48.680;8.894;2023-02-28T03:56:16;-2.40;99.90
17385;DHT22;8810;48.680;8.894;2023-02-28T03:58:49;-2.30;99.90
17385;DHT22;8810;48.680;8.894;2023-02-28T04:01:21;-2.30;99.90
17385;DHT22;8810;48.680;8.894;2023-02-28T04:03:50;-2.30;99.90
17385;DHT22;8810;48.680;8.894;2023-02-28T04:06:19;-2.30;99.90
17385;DHT22;8810;48.680;8.894;2023-02-28T04:08:47;-2.30;99.90
17385;DHT22;8810;48.680;8.894;2023-02-28T04:11:21;-2.20;99.90
17385;DHT22;8810;48.680;8.894;2023-02-28T04:13:48;-2.20;99.90
17385;DHT22;8810;48.680;8.894;2023-02-28T04:16:15;-2.20;99.90
17385;DHT22;8810;48.680;8.894;2023-02-28T04:18:42;-2.20;99.90
17385;DHT22;8810;48.680;8.894;2023-02-28T04:21:10;-2.20;99.90
17385;DHT22;8810;48.680;8.894;2023-02-28T04:23:38;-2.20;99.90
17385;DHT22;8810;48.680;8.894;2023-02-28T04:26:05;-2.20;99.90
17385;DHT22;8810;48.680;8.894;2023-02-28T04:28:32;-2.10;99.90
17385;DHT22;8810;48.680;8.894;2023-02-28T04:31:01;-2.10;99.90
17385;DHT22;8810;48.680;8.894;2023-02-28T04:33:28;-2.00;99.90
17385;DHT22;8810;48.680;8.894;2023-02-28T04:36:01;-2.00;99.90
17385;DHT22;8810;48.680;8.894;2023-02-28T04:38:28;-2.00;99.90
17385;DHT22;8810;48.680;8.894;2023-02-28T04:40:58;-2.00;99.90
17385;DHT22;8810;48.680;8.894;2023-02-28T04:43:26;-2.00;99.90
17385;DHT22;8810;48.680;8.894;2023-02-28T04:45:54;-1.90;99.90
17385;DHT22;8810;48.680;8.894;2023-02-28T04:48:23;-1.90;99.90
17385;DHT22;8810;48.680;8.894;2023-02-28T04:50:50;-1.90;99.90
17385;DHT22;8810;48.680;8.894;2023-02-28T04:53:17;-1.90;99.90
17385;DHT22;8810;48.680;8.894;2023-02-28T04:55:44;-1.90;99.90
17385;DHT22;8810;48.680;8.894;2023-02-28T04:58:13;-1.90;99.90
17385;DHT22;8810;48.680;8.894;2023-02-28T05:00:40;-1.90;99.90
17385;DHT22;8810;48.680;8.894;2023-02-28T05:03:06;-1.90;99.90
17385;DHT22;8810;48.680;8.894;2023-02-28T05:05:33;-1.90;99.90
17385;DHT22;8810;48.680;8.894;2023-02-28T05:08:00;-1.80;99.90
17385;DHT22;8810;48.680;8.894;2023-02-28T05:10:27;-1.90;99.90
17385;DHT22;8810;48.680;8.894;2023-02-28T05:12:54;-1.90;99.90
17385;DHT22;8810;48.680;8.894;2023-02-28T05:15:22;-1.90;99.90
17385;DHT22;8810;48.680;8.894;2023-02-28T05:17:50;-1.90;99.90
17385;DHT22;8810;48.680;8.894;2023-02-28T05:20:17;-1.90;99.90
17385;DHT22;8810;48.680;8.894;2023-02-28T05:22:44;-1.80;99.90
17385;DHT22;8810;48.680;8.894;2023-02-28T05:25:13;-1.80;99.90
17385;DHT22;8810;48.680;8.894;2023-02-28T05:27:42;-1.80;99.90
17385;DHT22;8810;48.680;8.894;2023-02-28T05:30:10;-1.80;99.90
17385;DHT22;8810;48.680;8.894;2023-02-28T05:32:39;-1.80;99.90
17385;DHT22;8810;48.680;8.894;2023-02-28T05:35:09;-1.80;99.90
17385;DHT22;8810;48.680;8.894;2023-02-28T05:37:36;-1.80;99.90
17385;DHT22;8810;48.680;8.894;2023-02-28T05:40:04;-1.80;99.90
17385;DHT22;8810;48.680;8.894;2023-02-28T05:42:34;-1.80;99.90
17385;DHT22;8810;48.680;8.894;2023-02-28T05:45:01;-1.70;99.90
17385;DHT22;8810;48.680;8.894;2023-02-28T05:47:28;-1.80;99.90
17385;DHT22;8810;48.680;8.894;2023-02-28T05:49:56;-1.80;99.90
17385;DHT22;8810;48.680;8.894;2023-02-28T05:52:23;-1.80;99.90
17385;DHT22;8810;48.680;8.894;2023-02-28T05:54:49;-1.80;99.90
17385;DHT22;8810;48.680;8.894;2023-02-28T05:57:16;-1.80;99.90
17385;DHT22;8810;48.680;8.894;2023-02-28T05:59:43;-1.70;99.90
17385;DHT22;8810;48.680;8.894;2023-02-28T06:02:13;-1.70;99.90
17385;DHT22;8810;48.680;8.894;2023-02-28T06:04:40;-1.70;99.90
17385;DHT22;8810;48.680;8.894;2023-02-28T06:07:08;-1.80;99.90
17385;DHT22;8810;48.680;8.894;2023-02-28T06:09:36;-1.80;99.90
17385;DHT22;8810;48.680;8.894;2023-02-28T06:12:05;-1.80;99.90
17385;DHT22;8810;48.680;8.894;2023-02-28T06:14:34;-1.70;99.90
17385;DHT22;8810;48.680;8.894;2023-02-28T06:17:02;-1.80;99.90
17385;DHT22;8810;48.680;8.894;2023-02-28T06:19:29;-1.70;99.90
17385;DHT22;8810;48.680;8.894;2023-02-28T06:21:57;-1.80;99.90
17385;DHT22;8810;48.680;8.894;2023-02-28T06:24:26;-1.80;99.90
17385;DHT22;8810;48.680;8.894;2023-02-28T06:26:54;-1.80;99.90
17385;DHT22;8810;48.680;8.894;2023-02-28T06:29:21;-1.70;99.90
17385;DHT22;8810;48.680;8.894;2023-02-28T06:31:48;-1.70;99.90
17385;DHT22;8810;48.680;8.894;2023-02-28T06:34:16;-1.70;99.90
17385;DHT22;8810;48.680;8.894;2023-02-28T06:36:43;-1.70;99.90
17385;DHT22;8810;48.680;8.894;2023-02-28T06:39:10;-1.70;99.90
17385;DHT22;8810;48.680;8.894;2023-02-28T06:41:38;-1.70;99.90
17385;DHT22;8810;48.680;8.894;2023-02-28T06:44:08;-1.80;99.90
17385;DHT22;8810;48.680;8.894;2023-02-28T06:46:41;-1.70;99.90
17385;DHT22;8810;48.680;8.894;2023-02-28T06:49:09;-1.70;99.90
17385;DHT22;8810;48.680;8.894;2023-02-28T06:51:36;-1.70;99.90
17385;DHT22;8810;48.680;8.894;2023-02-28T06:54:04;-1.70;99.90
17385;DHT22;8810;48.680;8.894;2023-02-28T06:56:35;-1.70;99.90
17385;DHT22;8810;48.680;8.894;2023-02-28T06:59:03;-1.70;99.90
17385;DHT22;8810;48.680;8.894;2023-02-28T07:01:30;-1.70;99.90
17385;DHT22;8810;48.680;8.894;2023-02-28T07:03:58;-1.70;99.90
17385;DHT22;8810;48.680;8.894;2023-02-28T07:06:26;-1.70;99.90
17385;DHT22;8810;48.680;8.894;2023-02-28T07:08:54;-1.60;99.90
17385;DHT22;8810;48.680;8.894;2023-02-28T07:11:21;-1.60;99.90
17385;DHT22;8810;48.680;8.894;2023-02-28T07:13:51;-1.60;99.90
17385;DHT22;8810;48.680;8.894;2023-02-28T07:16:19;-1.60;99.90
17385;DHT22;8810;48.680;8.894;2023-02-28T07:18:46;-1.50;99.90
17385;DHT22;8810;48.680;8.894;2023-02-28T07:21:13;-1.50;99.90
17385;DHT22;8810;48.680;8.894;2023-02-28T07:23:41;-1.40;99.90
17385;DHT22;8810;48.680;8.894;2023-02-28T07:26:11;-1.40;99.90
17385;DHT22;8810;48.680;8.894;2023-02-28T07:28:40;-1.40;99.90
17385;DHT22;8810;48.680;8.894;2023-02-28T07:31:09;-1.40;99.90
17385;DHT22;8810;48.680;8.894;2023-02-28T07:33:37;-1.30;99.90
17385;DHT22;8810;48.680;8.894;2023-02-28T07:36:06;-1.30;99.90
17385;DHT22;8810;48.680;8.894;2023-02-28T07:38:34;-1.30;99.90
17385;DHT22;8810;48.680;8.894;2023-02-28T07:41:01;-1.20;99.90
17385;DHT22;8810;48.680;8.894;2023-02-28T07:43:29;-1.20;99.90
17385;DHT22;8810;48.680;8.894;2023-02-28T07:46:01;-1.20;99.90
17385;DHT22;8810;48.680;8.894;2023-02-28T07:48:28;-1.20;99.90
17385;DHT22;8810;48.680;8.894;2023-02-28T07:50:57;-1.10;99.90
17385;DHT22;8810;48.680;8.894;2023-02-28T07:53:24;-1.10;99.90
17385;DHT22;8810;48.680;8.894;2023-02-28T07:55:54;-1.10;99.90
17385;DHT22;8810;48.680;8.894;2023-02-28T07:58:21;-1.10;99.90
17385;DHT22;8810;48.680;8.894;2023-02-28T08:00:48;-1.00;99.90
17385;DHT22;8810;48.680;8.894;2023-02-28T08:03:16;-1.00;99.90
17385;DHT22;8810;48.680;8.894;2023-02-28T08:05:43;-1.10;99.90
17385;DHT22;8810;48.680;8.894;2023-02-28T08:08:11;-1.00;99.90
17385;DHT22;8810;48.680;8.894;2023-02-28T08:10:38;-1.00;99.90
17385;DHT22;8810;48.680;8.894;2023-02-28T08:13:05;-1.00;99.90
17385;DHT22;8810;48.680;8.894;2023-02-28T08:15:31;-0.90;99.90
17385;DHT22;8810;48.680;8.894;2023-02-28T08:17:59;-0.90;99.90
17385;DHT22;8810;48.680;8.894;2023-02-28T08:20:26;-1.00;99.90
17385;DHT22;8810;48.680;8.894;2023-02-28T08:22:53;-0.90;99.90
17385;DHT22;8810;48.680;8.894;2023-02-28T08:25:21;-0.90;99.90
17385;DHT22;8810;48.680;8.894;2023-02-28T08:27:50;-0.80;99.90
17385;DHT22;8810;48.680;8.894;2023-02-28T08:30:18;-0.80;99.90
17385;DHT22;8810;48.680;8.894;2023-02-28T08:32:44;-0.80;99.90
17385;DHT22;8810;48.680;8.894;2023-02-28T08:35:11;-0.80;99.90
17385;DHT22;8810;48.680;8.894;2023-02-28T08:37:38;-0.80;99.90
17385;DHT22;8810;48.680;8.894;2023-02-28T08:40:06;-0.70;99.90
17385;DHT22;8810;48.680;8.894;2023-02-28T08:42:35;-0.70;99.90
17385;DHT22;8810;48.680;8.894;2023-02-28T08:45:02;-0.60;99.90
17385;DHT22;8810;48.680;8.894;2023-02-28T08:47:29;-0.60;99.90
17385;DHT22;8810;48.680;8.894;2023-02-28T08:49:56;-0.60;99.90
17385;DHT22;8810;48.680;8.894;2023-02-28T08:52:23;-0.60;99.90
17385;DHT22;8810;48.680;8.894;2023-02-28T08:54:50;-0.50;99.90
17385;DHT22;8810;48.680;8.894;2023-02-28T08:57:17;-0.50;99.90
17385;DHT22;8810;48.680;8.894;2023-02-28T08:59:45;-0.50;99.90
17385;DHT22;8810;48.680;8.894;2023-02-28T09:02:13;-0.50;99.90
17385;DHT22;8810;48.680;8.894;2023-02-28T09:04:40;-0.50;99.90
17385;DHT22;8810;48.680;8.894;2023-02-28T09:07:07;-0.40;99.90
17385;DHT22;8810;48.680;8.894;2023-02-28T09:09:34;-0.50;99.90
17385;DHT22;8810;48.680;8.894;2023-02-28T09:12:01;-0.40;99.90
17385;DHT22;8810;48.680;8.894;2023-02-28T09:14:28;-0.40;99.90
17385;DHT22;8810;48.680;8.894;2023-02-28T09:16:56;-0.40;99.90
17385;DHT22;8810;48.680;8.894;2023-02-28T09:19:23;-0.40;99.90
17385;DHT22;8810;48.680;8.894;2023-02-28T09:21:49;-0.30;99.90
17385;DHT22;8810;48.680;8.894;2023-02-28T09:24:17;-0.30;99.90
17385;DHT22;8810;48.680;8.894;2023-02-28T09:26:47;-0.30;99.90
17385;DHT22;8810;48.680;8.894;2023-02-28T09:29:13;-0.30;99.90
17385;DHT22;8810;48.680;8.894;2023-02-28T09:31:42;-0.30;99.90
17385;DHT22;8810;48.680;8.894;2023-02-28T09:34:10;-0.20;99.90
17385;DHT22;8810;48.680;8.894;2023-02-28T09:36:37;-0.20;99.90
17385;DHT22;8810;48.680;8.894;2023-02-28T09:39:04;-0.20;99.90
17385;DHT22;8810;48.680;8.894;2023-02-28T09:41:38;-0.10;99.90
17385;DHT22;8810;48.680;8.894;2023-02-28T09:44:17;-0.10;99.90
17385;DHT22;8810;48.680;8.894;2023-02-28T09:46:48;-0.10;99.90
17385;DHT22;8810;48.680;8.894;2023-02-28T09:49:19;-0.10;99.90
17385;DHT22;8810;48.680;8.894;2023-02-28T09:51:51;0.00;99.90
17385;DHT22;8810;48.680;8.894;2023-02-28T09:54:22;0.00;99.90
17385;DHT22;8810;48.680;8.894;2023-02-28T09:56:51;0.00;99.90
17385;DHT22;8810;48.680;8.894;2023-02-28T09:59:29;0.00;99.90
17385;DHT22;8810;48.680;8.894;2023-02-28T10:02:03;0.00;99.90
17385;DHT22;8810;48.680;8.894;2023-02-28T10:04:42;0.00;99.90
17385;DHT22;8810;48.680;8.894;2023-02-28T10:07:23;0.00;99.90
17385;DHT22;8810;48.680;8.894;2023-02-28T10:09:56;0.00;99.90
17385;DHT22;8810;48.680;8.894;2023-02-28T10:12:26;0.10;99.90
17385;DHT22;8810;48.680;8.894;2023-02-28T10:14:55;0.00;99.90
17385;DHT22;8810;48.680;8.894;2023-02-28T10:17:36;0.10;99.90
17385;DHT22;8810;48.680;8.894;2023-02-28T10:20:10;0.20;99.90
17385;DHT22;8810;48.680;8.894;2023-02-28T10:22:49;0.20;99.90
17385;DHT22;8810;48.680;8.894;2023-02-28T10:25:20;0.20;99.90
17385;DHT22;8810;48.680;8.894;2023-02-28T10:27:48;0.30;99.90
17385;DHT22;8810;48.680;8.894;2023-02-28T10:30:16;0.30;99.90
17385;DHT22;8810;48.680;8.894;2023-02-28T10:32:47;0.40;99.90
17385;DHT22;8810;48.680;8.894;2023-02-28T10:35:19;0.40;99.90
17385;DHT22;8810;48.680;8.894;2023-02-28T10:37:48;0.40;99.90
17385;DHT22;8810;48.680;8.894;2023-02-28T10:40:30;0.40;99.90
17385;DHT22;8810;48.680;8.894;2023-02-28T10:42:59;0.40;99.90
17385;DHT22;8810;48.680;8.894;2023-02-28T10:45:28;0.40;99.90
17385;DHT22;8810;48.680;8.894;2023-02-28T10:47:59;0.50;99.90
17385;DHT22;8810;48.680;8.894;2023-02-28T10:50:30;0.50;99.90
17385;DHT22;8810;48.680;8.894;2023-02-28T10:53:16;0.60;99.90
17385;DHT22;8810;48.680;8.894;2023-02-28T10:55:43;0.70;99.90
17385;DHT22;8810;48.680;8.894;2023-02-28T10:58:22;0.70;99.90
17385;DHT22;8810;48.680;8.894;2023-02-28T11:00:51;0.80;99.90
17385;DHT22;8810;48.680;8.894;2023-02-28T11:03:30;0.90;99.90
17385;DHT22;8810;48.680;8.894;2023-02-28T11:06:03;0.90;99.90
17385;DHT22;8810;48.680;8.894;2023-02-28T11:08:30;1.00;99.90
17385;DHT22;8810;48.680;8.894;2023-02-28T11:11:00;1.00;99.90
17385;DHT22;8810;48.680;8.894;2023-02-28T11:13:32;1.10;99.90
17385;DHT22;8810;48.680;8.894;2023-02-28T11:16:02;1.10;99.90
17385;DHT22;8810;48.680;8.894;2023-02-28T11:18:32;1.20;99.90
17385;DHT22;8810;48.680;8.894;2023-02-28T11:21:04;1.20;99.90
17385;DHT22;8810;48.680;8.894;2023-02-28T11:23:34;1.30;99.90
17385;DHT22;8810;48.680;8.894;2023-02-28T11:26:03;1.40;99.90
17385;DHT22;8810;48.680;8.894;2023-02-28T11:28:37;1.50;99.90
17385;DHT22;8810;48.680;8.894;2023-02-28T11:31:15;1.60;99.90
17385;DHT22;8810;48.680;8.894;2023-02-28T11:33:46;1.70;99.90
17385;DHT22;8810;48.680;8.894;2023-02-28T11:36:19;1.70;99.90
17385;DHT22;8810;48.680;8.894;2023-02-28T11:38:47;1.80;99.90
17385;DHT22;8810;48.680;8.894;2023-02-28T11:41:26;1.80;99.90
17385;DHT22;8810;48.680;8.894;2023-02-28T11:44:20;2.00;99.90
17385;DHT22;8810;48.680;8.894;2023-02-28T11:46:50;2.10;99.90
17385;DHT22;8810;48.680;8.894;2023-02-28T11:49:35;2.30;99.90
17385;DHT22;8810;48.680;8.894;2023-02-28T11:52:16;2.60;99.90
17385;DHT22;8810;48.680;8.894;2023-02-28T11:54:58;2.90;99.90
17385;DHT22;8810;48.680;8.894;2023-02-28T11:57:35;3.10;99.90
17385;DHT22;8810;48.680;8.894;2023-02-28T12:00:18;3.30;99.90
17385;DHT22;8810;48.680;8.894;2023-02-28T12:02:58;3.70;99.90
17385;DHT22;8810;48.680;8.894;2023-02-28T12:05:33;4.20;99.90
17385;DHT22;8810;48.680;8.894;2023-02-28T12:08:18;4.40;99.90
17385;DHT22;8810;48.680;8.894;2023-02-28T12:10:58;4.80;99.90
17385;DHT22;8810;48.680;8.894;2023-02-28T12:13:36;5.30;99.90
17385;DHT22;8810;48.680;8.894;2023-02-28T12:19:15;6.30;99.90
17385;DHT22;8810;48.680;8.894;2023-02-28T12:24:54;6.70;99.90
17385;DHT22;8810;48.680;8.894;2023-02-28T12:27:30;6.70;99.90
17385;DHT22;8810;48.680;8.894;2023-02-28T12:30:00;6.70;99.90
17385;DHT22;8810;48.680;8.894;2023-02-28T12:32:31;6.70;99.90
17385;DHT22;8810;48.680;8.894;2023-02-28T12:35:02;6.60;99.90
17385;DHT22;8810;48.680;8.894;2023-02-28T12:37:36;6.40;99.90
17385;DHT22;8810;48.680;8.894;2023-02-28T12:40:12;6.10;99.90
17385;DHT22;8810;48.680;8.894;2023-02-28T12:42:43;5.90;99.90
17385;DHT22;8810;48.680;8.894;2023-02-28T12:45:17;5.80;99.90
17385;DHT22;8810;48.680;8.894;2023-02-28T12:47:48;6.00;99.90
17385;DHT22;8810;48.680;8.894;2023-02-28T12:50:16;6.10;99.90
17385;DHT22;8810;48.680;8.894;2023-02-28T12:52:52;6.30;99.90
17385;DHT22;8810;48.680;8.894;2023-02-28T12:55:29;6.30;99.90
17385;DHT22;8810;48.680;8.894;2023-02-28T12:58:03;6.40;99.90
17385;DHT22;8810;48.680;8.894;2023-02-28T13:00:35;6.40;99.70
17385;DHT22;8810;48.680;8.894;2023-02-28T13:03:28;6.50;99.50
17385;DHT22;8810;48.680;8.894;2023-02-28T13:06:21;6.50;99.20
17385;DHT22;8810;48.680;8.894;2023-02-28T13:09:02;6.50;99.00
17385;DHT22;8810;48.680;8.894;2023-02-28T13:11:37;6.40;99.50
17385;DHT22;8810;48.680;8.894;2023-02-28T13:14:19;6.50;99.50
17385;DHT22;8810;48.680;8.894;2023-02-28T13:17:01;6.60;99.40
17385;DHT22;8810;48.680;8.894;2023-02-28T13:19:32;6.80;99.50
17385;DHT22;8810;48.680;8.894;2023-02-28T13:21:59;6.80;98.50
17385;DHT22;8810;48.680;8.894;2023-02-28T13:24:41;6.70;98.50
17385;DHT22;8810;48.680;8.894;2023-02-28T13:27:31;6.80;98.90
17385;DHT22;8810;48.680;8.894;2023-02-28T13:29:59;6.90;98.40
17385;DHT22;8810;48.680;8.894;2023-02-28T13:32:33;7.10;98.80
17385;DHT22;8810;48.680;8.894;2023-02-28T13:35:36;7.40;98.20
17385;DHT22;8810;48.680;8.894;2023-02-28T13:38:22;7.60;97.30
17385;DHT22;8810;48.680;8.894;2023-02-28T13:40:49;7.60;97.50
17385;DHT22;8810;48.680;8.894;2023-02-28T13:43:18;7.80;97.20
17385;DHT22;8810;48.680;8.894;2023-02-28T13:46:04;7.90;96.90
17385;DHT22;8810;48.680;8.894;2023-02-28T13:48:32;7.90;96.20
17385;DHT22;8810;48.680;8.894;2023-02-28T13:50:58;7.90;96.30
17385;DHT22;8810;48.680;8.894;2023-02-28T13:53:56;7.90;96.10
17385;DHT22;8810;48.680;8.894;2023-02-28T13:56:33;7.80;96.10
17385;DHT22;8810;48.680;8.894;2023-02-28T13:59:12;7.50;96.50
17385;DHT22;8810;48.680;8.894;2023-02-28T14:04:50;7.20;96.00
17385;DHT22;8810;48.680;8.894;2023-02-28T14:07:24;7.20;96.60
17385;DHT22;8810;48.680;8.894;2023-02-28T14:09:57;7.20;96.70
17385;DHT22;8810;48.680;8.894;2023-02-28T14:13:02;7.30;96.90
17385;DHT22;8810;48.680;8.894;2023-02-28T14:15:44;7.60;97.20
17385;DHT22;8810;48.680;8.894;2023-02-28T14:18:25;7.80;96.60
17385;DHT22;8810;48.680;8.894;2023-02-28T14:20:55;7.90;95.80
17385;DHT22;8810;48.680;8.894;2023-02-28T14:23:35;7.80;95.60
17385;DHT22;8810;48.680;8.894;2023-02-28T14:26:13;7.60;95.40
17385;DHT22;8810;48.680;8.894;2023-02-28T14:28:55;7.50;95.80
17385;DHT22;8810;48.680;8.894;2023-02-28T14:31:33;7.50;96.00
17385;DHT22;8810;48.680;8.894;2023-02-28T14:34:17;7.50;95.80
17385;DHT22;8810;48.680;8.894;2023-02-28T14:36:48;7.60;95.60
17385;DHT22;8810;48.680;8.894;2023-02-28T14:39:20;7.60;95.80
17385;DHT22;8810;48.680;8.894;2023-02-28T14:41:48;7.60;95.90
17385;DHT22;8810;48.680;8.894;2023-02-28T14:44:18;7.60;95.80
17385;DHT22;8810;48.680;8.894;2023-02-28T14:46:48;7.60;95.90
17385;DHT22;8810;48.680;8.894;2023-02-28T14:49:19;7.60;95.90
17385;DHT22;8810;48.680;8.894;2023-02-28T14:51:47;7.70;95.60
17385;DHT22;8810;48.680;8.894;2023-02-28T14:54:16;7.60;95.50
17385;DHT22;8810;48.680;8.894;2023-02-28T14:56:43;7.60;95.70
17385;DHT22;8810;48.680;8.894;2023-02-28T14:59:34;7.60;95.80
17385;DHT22;8810;48.680;8.894;2023-02-28T15:02:19;7.60;95.50
17385;DHT22;8810;48.680;8.894;2023-02-28T15:04:54;7.60;95.40
17385;DHT22;8810;48.680;8.894;2023-02-28T15:07:21;7.60;95.40
17385;DHT22;8810;48.680;8.894;2023-02-28T15:10:11;7.60;95.50
17385;DHT22;8810;48.680;8.894;2023-02-28T15:12:40;7.50;95.30
17385;DHT22;8810;48.680;8.894;2023-02-28T15:15:15;7.50;95.30
17385;DHT22;8810;48.680;8.894;2023-02-28T15:17:45;7.50;95.30
17385;DHT22;8810;48.680;8.894;2023-02-28T15:20:13;7.40;95.30
17385;DHT22;8810;48.680;8.894;2023-02-28T15:22:42;7.40;95.50
17385;DHT22;8810;48.680;8.894;2023-02-28T15:25:14;7.40;95.20
17385;DHT22;8810;48.680;8.894;2023-02-28T15:27:44;7.30;95.40
17385;DHT22;8810;48.680;8.894;2023-02-28T15:30:16;7.20;95.60
17385;DHT22;8810;48.680;8.894;2023-02-28T15:32:45;7.00;95.50
17385;DHT22;8810;48.680;8.894;2023-02-28T15:35:29;7.00;95.60
17385;DHT22;8810;48.680;8.894;2023-02-28T15:38:00;6.80;96.10
17385;DHT22;8810;48.680;8.894;2023-02-28T15:40:29;6.60;95.90
17385;DHT22;8810;48.680;8.894;2023-02-28T15:43:05;6.60;96.20
17385;DHT22;8810;48.680;8.894;2023-02-28T15:45:34;6.60;96.30
17385;DHT22;8810;48.680;8.894;2023-02-28T15:48:09;6.60;96.20
17385;DHT22;8810;48.680;8.894;2023-02-28T15:50:39;6.60;96.20
17385;DHT22;8810;48.680;8.894;2023-02-28T15:53:13;6.50;96.40
17385;DHT22;8810;48.680;8.894;2023-02-28T15:55:40;6.40;96.40
17385;DHT22;8810;48.680;8.894;2023-02-28T15:58:11;6.40;96.50
17385;DHT22;8810;48.680;8.894;2023-02-28T16:00:39;6.30;96.60
17385;DHT22;8810;48.680;8.894;2023-02-28T16:03:26;6.20;97.60
17385;DHT22;8810;48.680;8.894;2023-02-28T16:06:08;6.10;97.70
17385;DHT22;8810;48.680;8.894;2023-02-28T16:08:35;6.10;97.70
17385;DHT22;8810;48.680;8.894;2023-02-28T16:11:02;6.20;97.60
17385;DHT22;8810;48.680;8.894;2023-02-28T16:13:29;6.10;97.40
17385;DHT22;8810;48.680;8.894;2023-02-28T16:15:56;6.10;97.30
17385;DHT22;8810;48.680;8.894;2023-02-28T16:18:26;6.10;97.10
17385;DHT22;8810;48.680;8.894;2023-02-28T16:20:53;6.00;97.20
17385;DHT22;8810;48.680;8.894;2023-02-28T16:23:20;6.00;97.20
17385;DHT22;8810;48.680;8.894;2023-02-28T16:25:47;5.90;97.40
17385;DHT22;8810;48.680;8.894;2023-02-28T16:28:19;5.80;97.40
17385;DHT22;8810;48.680;8.894;2023-02-28T16:30:46;5.70;97.50